Time;durP1;ratioP1;P1;durP2;ratioP2;P2;SDS_P1;SDS_P2;PMS_P1;PMS_P2;Temp;Humidity;BMP_temperature;BMP_pressure;BME280_temperature;BME280_humidity;BME280_pressure;Samples;Min_cycle;Max_cycle;Signal;HPM_P1;HPM_P2
2023/07/24 00:01:18;;;;;;;;;6.00;5.67;;;;;22.25;93.07;99911.16;6250632;22;44964;-84
2023/07/24 00:03:43;;;;;;;;;5.00;5.00;;;;;22.22;93.18;99913.09;6279965;22;45439;-81
2023/07/24 00:06:09;;;;;;;;;5.00;4.33;;;;;22.21;93.81;99901.38;6281205;22;45299;-82
2023/07/24 00:08:34;;;;;;;;;5.33;5.33;;;;;22.25;93.80;99904.88;6253896;22;46702;-82
2023/07/24 00:11:00;;;;;;;;;6.67;5.00;;;;;22.24;93.96;99906.72;6252362;22;45225;-82
2023/07/24 00:13:25;;;;;;;;;3.00;3.00;;;;;22.20;93.84;99887.91;6278679;22;45031;-82
2023/07/24 00:15:51;;;;;;;;;4.00;4.00;;;;;22.24;93.45;99884.13;6279539;22;44834;-82
2023/07/24 00:18:17;;;;;;;;;4.00;4.00;;;;;22.30;93.50;99891.97;6254410;22;45122;-83
2023/07/24 00:20:43;;;;;;;;;5.00;4.00;;;;;22.22;93.66;99889.63;6254600;22;44843;-81
2023/07/24 00:23:08;;;;;;;;;4.33;4.33;;;;;22.26;94.22;99882.22;6255010;22;45278;-82
2023/07/24 00:25:33;;;;;;;;;4.00;4.00;;;;;22.22;93.78;99881.50;6283794;22;44734;-82
2023/07/24 00:27:59;;;;;;;;;4.50;4.50;;;;;22.18;93.48;99875.34;6278390;22;45233;-83
2023/07/24 00:33:46;;;;;;;;;5.67;5.00;;;;;22.24;92.62;99851.63;6279646;22;44909;-81
2023/07/24 00:36:13;;;;;;;;;3.25;3.00;;;;;22.32;92.69;99844.03;6250875;22;44784;-82
2023/07/24 00:38:39;;;;;;;;;3.50;3.50;;;;;22.29;92.39;99845.03;6279326;22;45016;-83
2023/07/24 00:41:04;;;;;;;;;7.00;4.00;;;;;22.29;92.27;99822.50;6278009;22;44701;-82
2023/07/24 00:43:29;;;;;;;;;6.00;6.00;;;;;22.31;91.96;99804.34;6278686;22;45122;-82
2023/07/24 00:45:57;;;;;;;;;5.33;5.33;;;;;22.36;92.44;99788.75;6279181;22;45276;-81
2023/07/24 00:48:25;;;;;;;;;6.00;6.00;;;;;22.18;91.89;99775.13;6280592;22;46239;-82
2023/07/24 00:50:51;;;;;;;;;4.00;4.00;;;;;22.22;90.85;99789.41;6254011;22;44779;-82
2023/07/24 00:53:18;;;;;;;;;3.33;3.33;;;;;22.30;90.75;99791.75;6253558;22;45666;-83
2023/07/24 00:55:44;;;;;;;;;5.67;4.00;;;;;22.16;90.70;99779.75;6254149;22;45111;-82
2023/07/24 00:58:16;;;;;;;;;3.33;3.33;;;;;22.34;90.14;99810.50;6281117;22;44905;-82
2023/07/24 01:00:41;;;;;;;;;6.75;6.50;;;;;22.31;90.38;99820.59;6277806;22;44748;-83
2023/07/24 01:03:07;;;;;;;;;3.75;3.00;;;;;22.32;90.31;99827.78;6252676;22;45842;-82
2023/07/24 01:05:32;;;;;;;;;8.00;5.33;;;;;22.27;90.50;99819.00;6280990;22;45338;-82
2023/07/24 01:07:58;;;;;;;;;4.00;3.00;;;;;22.29;89.96;99823.38;6280550;22;46147;-82
2023/07/24 01:10:23;;;;;;;;;5.33;5.33;;;;;22.29;90.47;99827.91;6252508;22;44804;-82
2023/07/24 01:13:10;;;;;;;;;6.75;5.25;;;;;22.34;89.92;99836.72;6277631;22;45217;-83
2023/07/24 01:15:48;;;;;;;;;6.00;5.50;;;;;22.36;89.99;99859.19;6250764;22;44935;-82
2023/07/24 01:18:16;;;;;;;;;4.00;4.00;;;;;22.35;89.69;99860.13;6277825;22;45693;-83
2023/07/24 01:20:54;;;;;;;;;4.50;4.50;;;;;22.33;89.44;99840.38;6280827;22;44753;-82
2023/07/24 01:26:43;;;;;;;;;7.50;7.50;;;;;22.32;89.75;99849.47;6280441;22;44775;-83
2023/07/24 01:29:09;;;;;;;;;5.75;5.25;;;;;22.24;90.08;99846.22;6280679;22;45395;-82
2023/07/24 01:31:34;;;;;;;;;5.00;5.00;;;;;22.25;89.68;99843.44;6253509;22;44829;-83
2023/07/24 01:34:00;;;;;;;;;4.00;4.00;;;;;22.20;90.49;99839.16;6251471;22;45260;-83
2023/07/24 01:36:25;;;;;;;;;6.33;6.33;;;;;22.16;90.85;99836.63;6279126;22;45240;-83
2023/07/24 01:38:51;;;;;;;;;6.00;4.33;;;;;22.11;91.97;99835.06;6251920;22;47148;-82
2023/07/24 01:41:18;;;;;;;;;4.33;4.00;;;;;22.16;92.44;99835.75;6253896;22;45006;-83
2023/07/24 01:43:43;;;;;;;;;3.00;3.00;;;;;22.12;92.19;99840.41;6252627;22;44894;-81
2023/07/24 01:46:09;;;;;;;;;6.33;6.00;;;;;22.11;91.57;99835.06;6280723;22;45395;-81
2023/07/24 01:48:34;;;;;;;;;5.00;5.00;;;;;22.12;91.70;99809.75;6250560;22;47405;-83
2023/07/24 01:51:00;;;;;;;;;7.67;6.67;;;;;22.15;93.01;99805.06;6250376;22;44840;-82
2023/07/24 01:53:26;;;;;;;;;5.00;5.00;;;;;22.05;93.58;99801.03;6252237;22;44756;-82
2023/07/24 01:55:51;;;;;;;;;5.00;5.00;;;;;22.01;92.72;99791.31;6280041;22;44784;-82
2023/07/24 01:58:16;;;;;;;;;5.25;5.25;;;;;22.01;92.35;99799.44;6279631;22;45377;-82
2023/07/24 02:00:43;;;;;;;;;4.50;4.50;;;;;21.97;92.59;99790.56;6252400;22;45284;-82
2023/07/24 02:03:09;;;;;;;;;8.00;5.00;;;;;21.97;93.06;99795.13;6252363;22;44776;-82
2023/07/24 02:05:35;;;;;;;;;4.00;4.00;;;;;21.86;90.89;99794.78;6252956;22;44757;-82
2023/07/24 02:08:10;;;;;;;;;7.33;5.00;;;;;21.97;90.17;99808.66;6279739;22;45300;-83
2023/07/24 02:10:39;;;;;;;;;6.00;6.00;;;;;22.01;90.70;99807.56;6280815;22;45248;-81
2023/07/24 02:13:07;;;;;;;;;4.67;4.67;;;;;21.93;91.75;99794.38;6252282;22;44768;-81
2023/07/24 02:15:32;;;;;;;;;4.00;3.67;;;;;21.97;91.42;99784.28;6251471;22;44963;-81
2023/07/24 02:17:58;;;;;;;;;4.33;4.33;;;;;21.96;92.20;99794.25;6279645;22;45325;-82
2023/07/24 02:20:23;;;;;;;;;4.00;4.00;;;;;21.92;91.22;99816.13;6281128;22;44731;-82
2023/07/24 02:22:48;;;;;;;;;7.33;7.33;;;;;21.87;91.12;99816.31;6280289;22;45320;-82
2023/07/24 02:25:14;;;;;;;;;5.50;5.00;;;;;21.86;91.68;99805.59;6251861;22;44825;-82
2023/07/24 02:27:39;;;;;;;;;7.00;6.00;;;;;21.85;91.30;99807.41;6279854;22;45328;-82
2023/07/24 02:30:05;;;;;;;;;7.00;5.00;;;;;21.85;91.07;99812.81;6251533;22;44732;-82
2023/07/24 02:32:32;;;;;;;;;4.50;4.50;;;;;21.85;91.09;99806.53;6280193;22;44748;-82
2023/07/24 02:34:57;;;;;;;;;6.75;5.75;;;;;21.84;91.51;99796.69;6253525;22;44966;-81
2023/07/24 02:37:23;;;;;;;;;3.00;3.00;;;;;21.80;91.21;99792.38;6279183;22;45136;-82
2023/07/24 02:39:48;;;;;;;;;7.33;7.33;;;;;21.80;90.64;99797.78;6278169;22;44788;-81
2023/07/24 02:42:13;;;;;;;;;6.00;6.00;;;;;21.73;91.19;99789.94;6279709;22;44869;-82
2023/07/24 02:44:39;;;;;;;;;6.00;6.00;;;;;21.76;91.53;99795.19;6280742;22;45307;-82
2023/07/24 02:47:04;;;;;;;;;6.00;6.00;;;;;21.75;91.25;99792.56;6251683;22;47324;-82
2023/07/24 02:49:30;;;;;;;;;6.00;6.00;;;;;21.71;90.96;99794.56;6280211;22;44812;-81
2023/07/24 02:55:17;;;;;;;;;3.33;3.33;;;;;21.76;90.95;99788.91;6279923;22;45272;-81
2023/07/24 02:57:42;;;;;;;;;5.67;5.00;;;;;21.76;91.83;99795.19;6251385;22;48451;-81
2023/07/24 03:00:09;;;;;;;;;5.33;4.33;;;;;21.81;92.13;99819.31;6251814;22;44806;-82
2023/07/24 03:02:34;;;;;;;;;6.00;6.00;;;;;21.80;93.23;99819.44;6251118;22;44747;-81
2023/07/24 03:04:59;;;;;;;;;7.00;6.67;;;;;21.85;94.23;99825.47;6278828;22;44931;-82
2023/07/24 03:07:25;;;;;;;;;8.00;6.33;;;;;21.86;95.03;99821.84;6279122;22;46190;-81
2023/07/24 03:09:51;;;;;;;;;7.00;5.67;;;;;21.83;95.08;99822.84;6250978;22;44866;-82
2023/07/24 03:12:16;;;;;;;;;8.33;5.67;;;;;21.75;95.16;99801.56;6250617;22;45434;-82
2023/07/24 03:14:42;;;;;;;;;4.67;4.33;;;;;21.64;96.35;99786.78;6252574;22;45305;-81
2023/07/24 03:17:07;;;;;;;;;6.00;6.00;;;;;21.63;96.54;99796.72;6252484;22;46903;-82
2023/07/24 03:19:32;;;;;;;;;4.67;4.67;;;;;21.50;96.40;99784.72;6280131;22;44653;-82
2023/07/24 03:21:58;;;;;;;;;4.00;4.00;;;;;21.45;96.77;99779.53;6280039;22;44753;-82
2023/07/24 03:24:23;;;;;;;;;7.33;7.00;;;;;21.44;98.03;99790.41;6280533;22;44863;-82
2023/07/24 03:26:50;;;;;;;;;7.00;5.67;;;;;21.44;98.54;99791.28;6252696;22;46932;-82
2023/07/24 03:29:15;;;;;;;;;5.67;5.67;;;;;21.40;98.45;99788.78;6253345;22;45017;-82
2023/07/24 03:31:43;;;;;;;;;8.67;8.67;;;;;21.34;98.78;99788.09;6253221;22;44716;-82
2023/07/24 03:34:09;;;;;;;;;6.67;6.00;;;;;21.27;99.02;99794.75;6254517;22;45362;-82
2023/07/24 03:36:35;;;;;;;;;8.00;6.67;;;;;21.34;98.78;99779.97;6255455;22;46817;-82
2023/07/24 03:39:01;;;;;;;;;9.67;6.33;;;;;21.32;100.00;99803.50;6253072;22;44738;-82
2023/07/24 03:41:26;;;;;;;;;6.33;5.00;;;;;21.26;100.00;99798.38;6253404;22;44811;-81
2023/07/24 03:43:51;;;;;;;;;8.00;6.33;;;;;21.29;100.00;99795.56;6280875;22;45311;-82
2023/07/24 03:46:17;;;;;;;;;6.33;5.00;;;;;21.17;100.00;99778.06;6281040;22;44933;-81
2023/07/24 03:48:42;;;;;;;;;5.00;5.00;;;;;21.21;100.00;99772.47;6252638;22;44669;-82
2023/07/24 03:51:08;;;;;;;;;6.67;5.33;;;;;21.16;100.00;99753.78;6253304;22;44807;-82
2023/07/24 03:53:33;;;;;;;;;5.67;5.67;;;;;21.13;100.00;99748.53;6252227;22;44812;-83
2023/07/24 03:55:59;;;;;;;;;7.00;6.00;;;;;21.16;100.00;99757.34;6278861;22;44920;-83
2023/07/24 03:58:24;;;;;;;;;7.00;6.00;;;;;21.20;100.00;99760.81;6251936;22;44802;-81
2023/07/24 04:00:50;;;;;;;;;6.33;5.00;;;;;21.20;100.00;99755.38;6252364;22;45133;-82
2023/07/24 04:03:16;;;;;;;;;4.33;4.00;;;;;21.16;100.00;99770.00;6252411;22;44899;-82
2023/07/24 04:05:41;;;;;;;;;6.00;6.00;;;;;21.13;100.00;99778.25;6277852;22;47070;-81
2023/07/24 04:08:06;;;;;;;;;8.33;8.00;;;;;21.13;100.00;99772.84;6252099;22;44899;-83
2023/07/24 04:10:33;;;;;;;;;6.00;5.33;;;;;21.10;100.00;99772.97;6280510;22;44917;-83
2023/07/24 04:12:58;;;;;;;;;6.00;6.00;;;;;20.97;100.00;99753.75;6253604;22;44880;-83
2023/07/24 04:15:25;;;;;;;;;5.33;4.67;;;;;21.03;100.00;99768.81;6253523;22;47095;-82
2023/07/24 04:17:50;;;;;;;;;6.33;5.33;;;;;21.05;100.00;99777.72;6281810;22;44830;-82
2023/07/24 04:20:16;;;;;;;;;6.00;6.00;;;;;21.04;100.00;99778.66;6256526;22;44748;-83
2023/07/24 04:22:41;;;;;;;;;7.33;5.67;;;;;20.99;100.00;99765.34;6284316;22;44740;-82
2023/07/24 04:25:09;;;;;;;;;5.00;5.00;;;;;21.13;100.00;99772.84;6255166;22;47161;-83
2023/07/24 04:27:35;;;;;;;;;6.00;5.00;;;;;21.05;100.00;99775.03;6281218;22;45192;-83
2023/07/24 04:30:01;;;;;;;;;5.33;5.33;;;;;21.12;100.00;99762.97;6253029;22;44799;-82
2023/07/24 04:32:27;;;;;;;;;4.00;4.00;;;;;20.98;100.00;99756.34;6281606;22;45422;-82
2023/07/24 04:34:53;;;;;;;;;5.00;5.00;;;;;20.92;100.00;99756.63;6254720;22;47802;-83
2023/07/24 04:37:18;;;;;;;;;4.67;4.00;;;;;20.90;100.00;99758.50;6253101;22;44764;-83
2023/07/24 04:39:44;;;;;;;;;3.67;3.67;;;;;20.94;100.00;99760.13;6252350;22;44768;-82
2023/07/24 04:42:09;;;;;;;;;3.00;3.00;;;;;20.97;100.00;99768.13;6282137;22;44801;-83
2023/07/24 04:44:35;;;;;;;;;3.67;3.67;;;;;21.03;100.00;99766.09;6254706;22;47082;-82
2023/07/24 04:47:02;;;;;;;;;3.33;3.33;;;;;21.06;100.00;99755.13;6280310;22;44849;-81
2023/07/24 04:49:32;;;;;;;;;2.00;2.00;;;;;21.07;100.00;99762.31;6255751;22;45347;-82
2023/07/24 04:52:00;;;;;;;;;2.00;2.00;;;;;21.04;100.00;99765.16;6283970;22;45450;-82
2023/07/24 04:54:25;;;;;;;;;6.00;6.00;;;;;21.08;100.00;99766.75;6256878;22;45919;-82
2023/07/24 04:56:51;;;;;;;;;4.00;4.00;;;;;21.11;100.00;99766.63;6257531;22;45268;-82
2023/07/24 04:59:21;;;;;;;;;4.00;4.00;;;;;21.23;100.00;99766.09;6283275;22;44800;-82
2023/07/24 05:01:52;;;;;;;;;1.67;1.67;;;;;21.17;100.00;99772.63;6256114;22;45122;-82
2023/07/24 05:04:18;;;;;;;;;3.75;2.75;;;;;21.15;100.00;99770.97;6281231;22;45157;-82
2023/07/24 05:06:44;;;;;;;;;5.00;5.00;;;;;21.21;100.00;99761.66;6256100;22;45035;-83
2023/07/24 05:09:09;;;;;;;;;3.00;3.00;;;;;21.16;100.00;99770.00;6284323;22;44742;-83
2023/07/24 05:11:36;;;;;;;;;2.33;2.33;;;;;21.18;100.00;99773.50;6284155;22;44880;-82
2023/07/24 05:14:02;;;;;;;;;3.00;3.00;;;;;21.17;100.00;99783.47;6255183;22;47135;-82
2023/07/24 05:16:28;;;;;;;;;3.67;3.00;;;;;21.16;100.00;99784.38;6282250;22;45402;-83
2023/07/24 05:18:53;;;;;;;;;4.00;2.75;;;;;21.18;100.00;99773.50;6254419;22;44807;-83
2023/07/24 05:21:18;;;;;;;;;3.00;3.00;;;;;21.16;100.00;99775.41;6253828;22;45403;-84
2023/07/24 05:23:44;;;;;;;;;4.00;4.00;;;;;21.20;100.00;99771.63;6284002;22;46374;-83
2023/07/24 05:26:09;;;;;;;;;4.00;4.00;;;;;21.22;100.00;99766.16;6252611;22;44815;-83
2023/07/24 05:28:34;;;;;;;;;3.00;3.00;;;;;21.28;100.00;99769.44;6280834;22;44853;-83
2023/07/24 05:31:03;;;;;;;;;3.00;3.00;;;;;21.33;99.73;99759.31;6253613;22;44828;-83
2023/07/24 05:33:29;;;;;;;;;2.00;2.00;;;;;21.35;99.37;99760.09;6280257;22;45112;-83
2023/07/24 05:36:13;;;;;;;;;4.33;2.67;;;;;21.47;98.90;99764.09;6251262;22;45945;-83
2023/07/24 05:38:39;;;;;;;;;2.00;2.00;;;;;21.39;98.10;99760.84;6251382;22;45571;-83
2023/07/24 05:41:05;;;;;;;;;3.00;3.00;;;;;21.37;97.22;99751.94;6253401;22;45415;-83
2023/07/24 05:43:32;;;;;;;;;2.50;2.00;;;;;21.42;96.61;99759.81;6253725;22;47915;-82
2023/07/24 05:45:58;;;;;;;;;3.00;3.00;;;;;21.47;96.65;99763.22;6281365;22;45343;-84
2023/07/24 05:48:24;;;;;;;;;2.00;2.00;;;;;21.52;97.27;99761.19;6279506;22;45442;-82
2023/07/24 05:50:52;;;;;;;;;4.00;3.25;;;;;21.48;95.87;99755.03;6251671;22;45337;-83
2023/07/24 05:53:17;;;;;;;;;1.00;1.00;;;;;21.50;94.42;99752.25;6226050;22;48213;-83
2023/07/24 05:55:46;;;;;;;;;3.00;3.00;;;;;21.53;94.02;99747.59;6252134;22;45277;-83
2023/07/24 05:58:14;;;;;;;;;4.00;3.00;;;;;21.59;92.26;99751.81;6252403;22;45340;-84
2023/07/24 06:00:40;;;;;;;;;2.00;2.00;;;;;21.61;92.43;99749.91;6280293;22;45714;-84
2023/07/24 06:03:05;;;;;;;;;2.00;2.00;;;;;21.81;92.12;99748.97;6251258;22;46945;-84
2023/07/24 06:05:31;;;;;;;;;1.00;1.00;;;;;21.99;89.99;99752.59;6278219;22;45319;-84
2023/07/24 06:07:56;;;;;;;;;2.00;2.00;;;;;22.18;88.52;99767.00;6253887;22;45504;-82
2023/07/24 11:56:58;;;;;;;;;2.00;2.00;;;;;28.17;45.07;99844.00;6255590;22;45752;-82
2023/07/24 12:00:12;;;;;;;;;2.75;2.75;;;;;28.34;44.66;99835.44;6255361;22;45229;-82
2023/07/24 12:29:38;;;;;;;;;2.67;2.67;;;;;28.04;44.99;99847.66;6328173;22;45000;-83
2023/07/24 12:35:04;;;;;;;;;3.00;3.00;;;;;27.78;44.92;99815.84;6247351;22;44811;-82
2023/07/24 12:37:42;;;;;;;;;3.00;3.00;;;;;27.65;45.63;99803.06;6213994;22;45497;-82
2023/07/24 12:44:49;;;;;;;;;;;;;;;;;;;;;
2023/07/24 12:58:11;;;;;;;;;;;;;;;;;;;;;
2023/07/24 13:01:11;;;;;;;;;;;;;;;;;;;;;
2023/07/24 13:21:14;;;;;;;;;5.00;4.00;;;;;25.93;55.22;99870.09;6013807;23;44850;-81
2023/07/24 13:27:58;;;;;;;;;4.00;4.00;;;;;26.32;53.98;99873.09;6187649;22;44914;-81
2023/07/24 13:45:35;;;;;;;;;1.67;1.67;;;;;26.74;51.83;99849.41;6250369;22;45081;-81
2023/07/24 14:18:48;;;;;;;;;3.33;1.00;;;;;29.61;47.56;99812.94;6287429;22;45288;-82
2023/07/24 14:21:15;;;;;;;;;1.50;1.50;;;;;28.96;47.54;99778.78;6283176;22;44879;-80
2023/07/24 14:24:01;;;;;;;;;0.25;0.25;;;;;29.06;48.61;99796.25;6284644;22;44798;-82
2023/07/24 14:29:29;;;;;;;;;0.75;0.75;;;;;29.92;47.10;99793.03;6169703;23;45509;-81
2023/07/24 14:32:00;;;;;;;;;2.00;0.25;;;;;29.57;46.48;99768.50;6160915;23;45137;-80
2023/07/24 14:34:32;;;;;;;;;0.25;0.25;;;;;29.43;46.45;99786.03;6165136;23;45055;-80
2023/07/24 14:37:23;;;;;;;;;;;;;;;;;;;;;
2023/07/24 14:40:07;;;;;;;;;1.50;1.50;;;;;33.97;44.22;99781.38;6313943;22;76350;-82
2023/07/24 14:42:52;;;;;;;;;3.00;1.50;;;;;35.83;40.49;99753.06;6291518;22;45365;-82
2023/07/24 14:45:23;;;;;;;;;1.50;1.50;;;;;37.08;38.52;99775.38;6313217;22;45335;-82
2023/07/24 14:52:06;;;;;;;;;0.00;0.00;;;;;38.03;33.87;99772.78;6315600;22;45386;-80
2023/07/24 14:54:38;;;;;;;;;0.25;0.00;;;;;35.31;35.79;99778.84;6285551;22;45268;-81
2023/07/24 14:57:04;;;;;;;;;1.33;1.33;;;;;33.59;37.32;99766.72;6322363;22;44702;-80
2023/07/24 14:59:33;;;;;;;;;1.00;1.00;;;;;32.46;38.56;99753.59;6285008;22;44795;-82
2023/07/24 15:02:17;;;;;;;;;0.00;0.00;;;;;31.48;39.75;99757.91;6314653;22;45412;-81
2023/07/24 15:04:42;;;;;;;;;0.00;0.00;;;;;30.65;40.35;99760.47;6317782;22;45921;-82
2023/07/24 15:07:11;;;;;;;;;1.00;1.00;;;;;30.06;42.50;99786.41;6322005;22;45963;-87
2023/07/24 15:09:40;;;;;;;;;1.75;1.75;;;;;29.21;44.15;99795.06;6329500;22;45000;-79
2023/07/24 15:12:15;;;;;;;;;1.00;1.00;;;;;28.47;46.36;99824.44;6324322;22;46983;-85
2023/07/24 15:14:41;;;;;;;;;0.00;0.00;;;;;27.45;49.52;99781.75;6319660;22;44854;-80
2023/07/24 15:20:12;;;;;;;;;1.75;1.75;;;;;25.67;55.38;99783.69;6222789;22;46425;-85
2023/07/24 15:22:41;;;;;;;;;1.25;1.25;;;;;25.13;59.20;99777.03;6232488;22;45081;-85
2023/07/24 15:25:07;;;;;;;;;2.25;1.25;;;;;24.57;76.13;99786.78;6258531;22;44677;-87
2023/07/24 15:27:41;;;;;;;;;1.25;1.25;;;;;24.17;76.70;99803.50;6255564;22;44796;-83
2023/07/24 15:33:30;;;;;;;;;3.25;2.50;;;;;23.27;100.00;99812.09;6259619;22;45000;-80
2023/07/24 15:42:44;;;;;;;;;3.00;3.00;;;;;22.75;99.68;99804.81;6251852;22;45230;-79
2023/07/24 15:45:19;;;;;;;;;2.25;2.25;;;;;22.76;95.54;99816.53;6253851;22;47226;-88
2023/07/24 15:47:54;;;;;;;;;2.75;2.75;;;;;22.83;94.77;99831.53;6267283;22;44764;-88
2023/07/24 15:53:01;;;;;;;;;2.00;2.00;;;;;22.67;94.28;99792.63;6224853;22;46029;-87
2023/07/24 15:58:43;;;;;;;;;2.67;2.67;;;;;23.05;94.65;99827.75;6211687;22;46941;-85
2023/07/24 16:01:09;;;;;;;;;3.00;3.00;;;;;23.01;95.26;99820.72;6236248;22;44847;-85
2023/07/24 16:03:35;;;;;;;;;5.00;4.50;;;;;23.04;93.48;99817.84;6234330;22;44756;-87
2023/07/24 16:06:00;;;;;;;;;3.33;3.33;;;;;23.02;92.33;99811.63;6258612;22;45631;-83
2023/07/24 16:08:28;;;;;;;;;4.00;4.00;;;;;23.04;91.60;99812.44;6255164;22;45349;-81
2023/07/24 16:10:54;;;;;;;;;3.67;3.67;;;;;22.95;91.81;99814.63;6225736;22;44722;-80
2023/07/24 16:13:19;;;;;;;;;3.00;3.00;;;;;22.95;91.46;99811.91;6229066;22;44947;-80
2023/07/24 16:15:54;;;;;;;;;3.67;3.67;;;;;23.06;90.94;99822.22;6195489;22;47162;-79
2023/07/24 16:18:23;;;;;;;;;2.75;2.75;;;;;22.93;91.26;99818.38;6248491;22;45375;-79
2023/07/24 16:20:49;;;;;;;;;6.00;6.00;;;;;22.79;90.91;99816.38;6248667;22;45387;-80
2023/07/24 16:23:14;;;;;;;;;5.33;4.00;;;;;22.72;91.08;99809.50;6249718;22;45253;-79
2023/07/24 16:25:39;;;;;;;;;4.33;4.33;;;;;22.70;91.75;99823.16;6247307;22;46646;-80
2023/07/24 16:28:14;;;;;;;;;5.00;5.00;;;;;22.75;97.43;99829.22;6248710;22;44733;-80
2023/07/24 16:30:39;;;;;;;;;7.67;6.00;;;;;22.29;100.00;99836.91;6220206;22;44718;-79
2023/07/24 16:33:05;;;;;;;;;5.00;4.00;;;;;23.36;100.00;99984.38;6226153;22;45760;-81
2023/07/24 16:35:30;;;;;;;;;2.00;2.00;;;;;35.04;100.00;99790.84;6226624;22;46002;-80
2023/07/24 16:37:55;;;;;;;;;3.33;3.33;;;;;41.92;100.00;99793.78;6225816;22;44656;-80
2023/07/24 16:40:21;;;;;;;;;4.25;4.25;;;;;36.62;100.00;99785.03;6226848;22;44776;-80
2023/07/24 16:42:46;;;;;;;;;4.00;4.00;;;;;34.57;94.63;99771.75;6226860;22;44883;-80
2023/07/24 16:45:12;;;;;;;;;6.00;6.00;;;;;34.13;93.10;99769.69;6253367;22;46744;-81
2023/07/24 16:50:59;;;;;;;;;6.00;4.67;;;;;33.05;95.56;99782.06;6250198;22;44908;-78
2023/07/24 16:53:25;;;;;;;;;4.67;4.67;;;;;33.06;97.44;99781.88;6225922;22;45257;-79
2023/07/24 16:55:50;;;;;;;;;5.00;5.00;;;;;33.07;96.54;99797.41;6223089;22;46993;-79
2023/07/24 16:58:16;;;;;;;;;7.25;6.00;;;;;33.19;96.19;99795.41;6250470;22;44693;-78
2023/07/24 17:00:57;;;;;;;;;11.00;9.67;;;;;34.11;92.47;99796.56;6249035;22;44682;-78
2023/07/24 17:03:23;;;;;;;;;6.00;6.00;;;;;33.21;96.06;99803.53;6252745;22;44774;-79
2023/07/24 17:05:48;;;;;;;;;5.33;5.33;;;;;33.08;96.25;99803.78;6249221;22;47118;-79
2023/07/24 17:08:14;;;;;;;;;7.67;5.67;;;;;33.04;96.86;99807.84;6261428;22;44814;-79
2023/07/24 17:10:50;;;;;;;;;6.00;5.00;;;;;33.63;94.83;99815.06;6258668;22;45211;-79
2023/07/24 17:13:16;;;;;;;;;5.00;3.67;;;;;32.94;96.47;99815.25;6261473;22;44828;-79
2023/07/24 17:15:43;;;;;;;;;5.67;5.67;;;;;33.26;96.36;99815.81;6267168;22;45473;-81
2023/07/24 17:18:09;;;;;;;;;4.33;3.00;;;;;33.02;94.44;99815.38;6270792;22;44768;-82
2023/07/24 17:20:34;;;;;;;;;3.00;3.00;;;;;32.95;94.91;99814.25;6269072;22;44934;-81
2023/07/24 17:23:02;;;;;;;;;4.00;3.00;;;;;33.02;94.63;99807.97;6270713;22;44775;-81
2023/07/24 17:25:27;;;;;;;;;2.75;2.75;;;;;33.13;93.61;99818.03;6269796;22;46830;-81
2023/07/24 17:27:59;;;;;;;;;3.33;3.00;;;;;33.85;93.54;99808.31;6270494;22;45147;-81
2023/07/24 17:30:24;;;;;;;;;4.00;4.00;;;;;33.16;93.69;99812.22;6268930;22;45154;-82
2023/07/24 17:32:50;;;;;;;;;4.00;4.00;;;;;33.21;92.88;99804.38;6270034;22;44930;-83
2023/07/24 17:35:15;;;;;;;;;2.67;2.67;;;;;33.40;92.43;99814.50;6269557;22;46797;-83
2023/07/24 17:37:44;;;;;;;;;3.00;3.00;;;;;33.90;92.03;99810.63;6269688;22;44820;-83
2023/07/24 17:40:10;;;;;;;;;4.00;3.67;;;;;33.33;91.55;99810.63;6270983;22;44764;-83
2023/07/24 17:42:41;;;;;;;;;3.25;3.25;;;;;33.12;92.34;99804.41;6270662;22;45088;-83
2023/07/24 17:50:24;;;;;;;;;3.25;3.00;;;;;33.84;88.39;99822.25;6269436;22;44934;-82
2023/07/24 17:52:49;;;;;;;;;4.00;4.00;;;;;32.88;90.24;99817.59;6272016;22;44749;-82
2023/07/24 17:55:16;;;;;;;;;4.50;4.50;;;;;32.88;89.82;99819.44;6245291;22;47506;-83
2023/07/24 18:02:52;;;;;;;;;4.00;2.67;;;;;32.53;90.67;99789.69;6196863;22;46713;-82
2023/07/24 18:05:26;;;;;;;;;3.00;3.00;;;;;32.81;91.81;99771.50;6269884;22;46887;-83
2023/07/24 18:07:51;;;;;;;;;3.67;3.00;;;;;32.33;93.48;99783.28;6268624;22;45177;-83
2023/07/24 18:15:36;;;;;;;;;4.33;3.00;;;;;32.55;92.22;99793.22;6253913;22;46041;-81
2023/07/24 18:18:07;;;;;;;;;5.67;5.00;;;;;33.27;92.14;99798.28;6241452;22;45653;-81
2023/07/24 18:20:32;;;;;;;;;5.00;5.00;;;;;32.63;91.90;99776.84;6243139;22;45509;-81
2023/07/24 18:23:01;;;;;;;;;5.00;5.00;;;;;32.61;90.92;99785.25;6242869;22;45338;-81
2023/07/24 18:28:48;;;;;;;;;4.33;3.00;;;;;32.84;89.63;99810.63;6244142;22;45664;-82
2023/07/24 18:31:18;;;;;;;;;2.33;2.33;;;;;32.78;89.91;99813.94;6243820;22;45394;-82
2023/07/24 18:33:43;;;;;;;;;6.00;5.00;;;;;32.72;88.82;99814.50;6270117;22;44777;-82
2023/07/24 18:36:09;;;;;;;;;5.00;5.00;;;;;32.67;88.79;99800.31;6269738;22;47020;-82
2023/07/24 18:38:41;;;;;;;;;4.00;3.00;;;;;33.12;89.20;99799.75;6271581;22;44671;-82
2023/07/24 18:41:54;;;;;;;;;7.33;6.00;;;;;33.44;84.86;99812.31;6272443;22;44790;-82
2023/07/24 18:44:20;;;;;;;;;5.33;5.00;;;;;32.37;89.44;99807.63;6270297;22;44896;-83
2023/07/24 18:49:22;;;;;;;;;4.00;3.00;;;;;32.25;89.63;99797.75;6269714;22;44803;-83
2023/07/24 18:51:48;;;;;;;;;3.67;3.67;;;;;32.81;90.37;99791.63;6270805;22;44732;-82
2023/07/24 18:54:14;;;;;;;;;6.00;5.00;;;;;32.30;89.65;99787.22;6269354;22;44778;-83
2023/07/24 18:56:39;;;;;;;;;3.00;3.00;;;;;32.21;91.12;99766.03;6270016;22;47316;-84
2023/07/24 18:59:05;;;;;;;;;4.33;4.33;;;;;32.35;91.31;99790.38;6269009;22;44760;-82
2023/07/24 19:01:33;;;;;;;;;5.00;5.00;;;;;32.31;89.30;99793.56;6270866;22;44733;-82
2023/07/24 19:03:58;;;;;;;;;2.25;2.25;;;;;32.20;90.33;99791.81;6270787;22;44997;-83
2023/07/24 19:06:24;;;;;;;;;6.00;3.00;;;;;32.28;90.17;99795.59;6271379;22;45028;-82
2023/07/24 19:08:49;;;;;;;;;3.33;3.33;;;;;32.20;89.37;99795.44;6271343;22;44806;-83
2023/07/24 19:11:18;;;;;;;;;4.00;3.67;;;;;32.77;87.77;99792.94;6270333;22;44818;-83
2023/07/24 19:13:43;;;;;;;;;4.67;4.67;;;;;31.91;89.68;99787.03;6270581;22;44762;-82
2023/07/24 19:16:09;;;;;;;;;3.33;3.33;;;;;31.95;89.51;99799.50;6271543;22;45347;-83
2023/07/24 19:18:34;;;;;;;;;4.00;4.00;;;;;31.71;90.10;99775.09;6270057;22;44731;-82
2023/07/24 19:21:01;;;;;;;;;7.00;5.33;;;;;31.66;89.21;99772.75;6270669;22;44891;-83
2023/07/24 19:23:26;;;;;;;;;5.00;5.00;;;;;31.65;90.24;99781.13;6244827;22;44950;-82
2023/07/24 19:25:52;;;;;;;;;5.00;5.00;;;;;31.47;91.39;99808.38;6269653;22;47164;-83
2023/07/24 19:28:17;;;;;;;;;4.00;4.00;;;;;31.25;92.65;99813.00;6271378;22;44732;-82
2023/07/24 19:30:42;;;;;;;;;4.00;3.33;;;;;30.90;94.57;99813.28;6270332;22;44904;-83
2023/07/24 19:33:09;;;;;;;;;4.33;4.33;;;;;30.38;97.82;99818.56;6271143;22;44837;-83
2023/07/24 19:35:35;;;;;;;;;3.00;3.00;;;;;29.97;100.00;99820.06;6270795;22;45184;-83
2023/07/24 19:38:00;;;;;;;;;4.67;4.67;;;;;30.09;99.88;99835.50;6271220;22;44811;-83
2023/07/24 19:40:26;;;;;;;;;3.00;3.00;;;;;30.15;100.00;99844.25;6270542;22;44864;-83
2023/07/24 19:42:51;;;;;;;;;4.33;4.33;;;;;30.03;99.12;99846.13;6271423;22;45181;-84
2023/07/24 19:45:16;;;;;;;;;4.00;4.00;;;;;30.22;99.79;99846.38;6270783;22;45149;-83
2023/07/24 19:47:42;;;;;;;;;3.00;3.00;;;;;30.01;100.00;99848.97;6270757;22;45391;-83
2023/07/24 19:50:10;;;;;;;;;2.00;2.00;;;;;30.54;100.00;99847.44;6271124;22;44849;-82
2023/07/24 19:52:38;;;;;;;;;3.67;3.00;;;;;30.33;100.00;99851.00;6269856;22;44742;-84
2023/07/24 19:55:04;;;;;;;;;4.67;4.00;;;;;29.85;100.00;99849.34;6270406;22;45649;-84
2023/07/24 19:57:29;;;;;;;;;2.67;2.67;;;;;30.66;96.80;99854.66;6269145;22;44748;-84
2023/07/24 19:59:54;;;;;;;;;3.33;3.33;;;;;31.02;94.45;99852.56;6269698;22;44764;-83
2023/07/24 20:02:20;;;;;;;;;3.33;3.33;;;;;29.84;100.00;99857.72;6270939;22;45044;-82
2023/07/24 20:04:45;;;;;;;;;3.67;3.67;;;;;29.65;100.00;99858.28;6269335;22;47016;-84
2023/07/24 20:07:11;;;;;;;;;3.33;3.33;;;;;29.59;100.00;99862.41;6270247;22;44682;-84
2023/07/24 20:09:38;;;;;;;;;2.67;2.00;;;;;29.57;100.00;99850.69;6271189;22;44740;-84
2023/07/24 20:12:05;;;;;;;;;4.33;3.00;;;;;30.16;100.00;99845.97;6269637;22;44716;-85
2023/07/24 20:14:35;;;;;;;;;5.67;5.67;;;;;30.28;100.00;99840.38;6267432;22;45061;-84
2023/07/24 20:17:01;;;;;;;;;4.00;4.00;;;;;29.68;100.00;99847.94;6269162;22;44901;-83
2023/07/24 20:19:26;;;;;;;;;5.00;3.33;;;;;29.72;100.00;99851.34;6270615;22;44873;-86